Time;durP1;ratioP1;P1;durP2;ratioP2;P2;SDS_P1;SDS_P2;PMS_P1;PMS_P2;Temp;Humidity;BMP_temperature;BMP_pressure;BME280_temperature;BME280_humidity;BME280_pressure;Samples;Min_cycle;Max_cycle;Signal;HPM_P1;HPM_P2
2022/03/25 00:01:36;;;;;;;28.05;11.07;;;;;;;3.53;52.80;99835.47;5102896;28;20044;-58
2022/03/25 00:04:01;;;;;;;29.25;10.20;;;;;;;3.57;53.20;99826.16;5119770;28;20030;-57
2022/03/25 00:06:27;;;;;;;37.30;10.27;;;;;;;3.60;53.19;99823.59;5110970;28;20205;-57
2022/03/25 00:08:52;;;;;;;27.52;9.70;;;;;;;3.56;53.25;99817.63;5102810;28;20020;-57
2022/03/25 00:11:18;;;;;;;23.02;10.77;;;;;;;3.59;52.60;99821.88;5102701;28;20044;-58
2022/03/25 00:13:44;;;;;;;30.95;10.85;;;;;;;3.58;53.61;99828.72;5106918;28;20270;-57
2022/03/25 00:16:09;;;;;;;28.50;10.75;;;;;;;3.58;52.48;99822.75;5124948;28;20059;-59
2022/03/25 00:18:35;;;;;;;27.80;10.75;;;;;;;3.55;52.86;99823.56;5101141;28;20024;-58
2022/03/25 00:21:00;;;;;;;31.85;10.60;;;;;;;3.58;52.13;99823.59;5094842;28;20093;-57
2022/03/25 00:23:26;;;;;;;26.00;9.35;;;;;;;3.56;52.26;99816.75;5106773;28;20023;-57
2022/03/25 00:25:53;;;;;;;23.08;9.82;;;;;;;3.43;52.14;99814.09;5106761;28;20220;-57
2022/03/25 00:28:20;;;;;;;28.08;9.70;;;;;;;3.44;52.70;99822.59;5120949;28;20023;-57
2022/03/25 00:30:46;;;;;;;28.13;9.63;;;;;;;3.45;52.86;99822.63;5100992;28;20098;-57
2022/03/25 00:33:12;;;;;;;24.90;9.70;;;;;;;3.47;52.66;99812.41;5106509;28;20031;-57
2022/03/25 00:35:40;;;;;;;27.15;10.75;;;;;;;3.44;52.25;99814.94;5106295;28;20027;-58
2022/03/25 00:38:06;;;;;;;25.92;10.18;;;;;;;3.48;52.82;99816.69;5106821;28;20059;-57
2022/03/25 00:40:31;;;;;;;30.45;10.10;;;;;;;3.47;53.26;99816.66;5106549;28;20073;-58
2022/03/25 00:42:58;;;;;;;22.90;10.23;;;;;;;3.34;51.97;99801.19;5105953;28;20054;-58
2022/03/25 00:45:24;;;;;;;19.75;9.85;;;;;;;3.41;51.55;99817.47;5117903;28;20024;-58
2022/03/25 00:47:50;;;;;;;21.17;8.90;;;;;;;3.43;52.01;99814.09;5120204;28;20063;-57
2022/03/25 00:50:16;;;;;;;26.85;10.30;;;;;;;3.36;52.54;99808.88;5101842;28;20048;-58
2022/03/25 00:52:42;;;;;;;23.38;10.38;;;;;;;3.24;51.40;99799.38;5122407;28;20050;-56
2022/03/25 00:55:08;;;;;;;21.85;8.95;;;;;;;3.27;51.55;99805.38;5089850;28;20191;-57
2022/03/25 00:57:34;;;;;;;26.77;9.93;;;;;;;3.21;52.29;99804.47;5102560;28;20039;-59
2022/03/25 01:00:00;;;;;;;23.33;9.68;;;;;;;3.31;52.51;99808.84;5106057;28;20356;-57
2022/03/25 01:02:25;;;;;;;22.92;9.82;;;;;;;3.30;52.58;99807.09;5105940;28;20024;-57
2022/03/25 01:04:51;;;;;;;26.20;10.35;;;;;;;3.31;52.72;99805.41;5121816;28;20081;-57
2022/03/25 01:07:17;;;;;;;22.73;10.38;;;;;;;3.25;52.08;99801.94;5105988;28;20024;-58
2022/03/25 01:09:43;;;;;;;22.52;9.10;;;;;;;3.28;53.11;99798.56;5119922;28;20344;-57
2022/03/25 01:12:11;;;;;;;25.98;10.20;;;;;;;3.27;52.85;99800.25;5116931;28;20218;-58
2022/03/25 01:14:37;;;;;;;24.77;9.73;;;;;;;3.27;53.33;99802.81;5105590;28;20342;-59
2022/03/25 01:17:02;;;;;;;28.42;10.27;;;;;;;3.27;52.93;99802.81;5105945;28;20040;-59
2022/03/25 01:19:28;;;;;;;29.65;10.82;;;;;;;3.25;52.64;99798.50;5105729;28;20031;-59
2022/03/25 01:21:55;;;;;;;28.20;10.40;;;;;;;3.21;53.02;99786.56;5121035;28;20024;-58
2022/03/25 01:24:21;;;;;;;25.02;10.30;;;;;;;3.30;52.70;99794.31;5112133;28;20250;-58
2022/03/25 01:26:47;;;;;;;26.83;10.10;;;;;;;3.24;53.36;99796.81;5103507;28;20045;-57
2022/03/25 01:29:13;;;;;;;25.63;11.23;;;;;;;3.28;52.85;99796.84;5103234;28;20024;-57
2022/03/25 01:31:39;;;;;;;24.80;10.07;;;;;;;3.26;53.48;99796.00;5105326;28;20028;-57
2022/03/25 01:34:05;;;;;;;32.47;10.98;;;;;;;3.25;53.41;99796.84;5105206;28;20216;-57
2022/03/25 01:36:30;;;;;;;23.85;10.00;;;;;;;3.30;53.73;99804.53;5105558;28;20020;-57
2022/03/25 01:39:01;;;;;;;22.90;9.55;;;;;;;3.30;52.49;99803.69;5107182;28;20032;-58
2022/03/25 01:41:27;;;;;;;27.90;10.80;;;;;;;3.29;52.27;99805.38;5105434;28;20047;-58
2022/03/25 01:43:57;;;;;;;28.52;10.50;;;;;;;2.92;53.35;99741.91;5105114;28;20051;-58
2022/03/25 01:46:24;;;;;;;22.73;9.50;;;;;;;3.27;53.59;99807.09;5105362;28;20274;-57
2022/03/25 01:48:50;;;;;;;26.63;10.70;;;;;;;3.21;52.53;99813.00;5119948;28;20027;-60
2022/03/25 01:51:39;;;;;;;23.85;10.07;;;;;;;3.30;52.17;99813.94;5110379;28;20024;-58
2022/03/25 01:54:32;;;;;;;20.75;9.57;;;;;;;3.30;53.26;99817.34;5090542;28;20104;-58
2022/03/25 01:57:00;;;;;;;24.67;10.32;;;;;;;2.98;52.23;99753.91;5090519;28;20042;-58
2022/03/25 01:59:26;;;;;;;23.75;10.35;;;;;;;3.36;53.05;99817.41;5104542;28;20028;-58
2022/03/25 02:01:54;;;;;;;31.08;10.40;;;;;;;3.35;53.03;99819.94;5103931;28;20240;-57
2022/03/25 02:04:21;;;;;;;26.02;9.88;;;;;;;3.31;53.71;99819.06;5104798;28;20228;-58
2022/03/25 02:06:47;;;;;;;28.15;10.27;;;;;;;3.35;53.45;99822.50;5118844;28;20039;-59
2022/03/25 02:09:12;;;;;;;20.73;10.70;;;;;;;3.31;52.30;99811.38;5115966;28;20327;-58
2022/03/25 02:11:39;;;;;;;23.30;10.23;;;;;;;3.34;53.78;99829.34;5103542;28;20062;-59
2022/03/25 02:14:04;;;;;;;26.60;10.70;;;;;;;3.36;54.19;99830.19;5084457;28;20044;-59
2022/03/25 02:16:42;;;;;;;24.42;11.32;;;;;;;3.29;52.75;99823.28;5103626;28;20086;-59
2022/03/25 02:19:10;;;;;;;27.98;10.70;;;;;;;3.33;53.29;99831.88;5088758;28;20255;-60
2022/03/25 02:21:40;;;;;;;26.67;11.30;;;;;;;3.37;52.77;99837.03;5084622;28;20031;-59
2022/03/25 02:24:08;;;;;;;19.42;10.25;;;;;;;3.04;54.29;99788.94;5085299;28;20200;-59
2022/03/25 02:26:36;;;;;;;24.75;11.55;;;;;;;3.44;53.20;99832.84;5100442;28;20032;-57
2022/03/25 02:29:07;;;;;;;28.27;11.13;;;;;;;3.14;53.32;99784.78;5101955;28;20194;-57
2022/03/25 02:31:33;;;;;;;28.27;11.02;;;;;;;3.51;53.98;99841.47;5085401;28;20032;-58
2022/03/25 02:34:03;;;;;;;26.35;10.40;;;;;;;3.55;53.87;99841.50;5097266;28;20024;-58
2022/03/25 02:36:29;;;;;;;24.35;10.90;;;;;;;3.53;53.05;99832.91;5103078;28;20020;-58
2022/03/25 02:38:54;;;;;;;29.23;10.73;;;;;;;3.59;53.88;99839.81;5105064;28;20045;-58
2022/03/25 02:41:20;;;;;;;27.25;11.15;;;;;;;3.35;53.49;99797.78;5100833;28;20032;-59
2022/03/25 02:43:45;;;;;;;24.30;10.88;;;;;;;3.67;53.36;99842.44;5119756;28;20028;-58
2022/03/25 02:46:11;;;;;;;23.45;10.55;;;;;;;3.65;54.06;99839.88;5102906;28;20344;-59
2022/03/25 02:48:37;;;;;;;21.40;10.80;;;;;;;3.70;53.67;99843.31;5104170;28;20019;-60
2022/03/25 02:51:03;;;;;;;22.75;10.35;;;;;;;3.62;54.12;99827.06;5103419;28;20031;-59
2022/03/25 02:53:28;;;;;;;29.98;10.95;;;;;;;3.72;53.84;99844.22;5102612;28;20408;-60
2022/03/25 02:55:55;;;;;;;30.42;12.00;;;;;;;3.75;53.71;99831.44;5102669;28;20024;-57
2022/03/25 02:58:21;;;;;;;24.48;11.05;;;;;;;3.86;54.24;99849.44;5120368;28;20031;-56
2022/03/25 03:00:47;;;;;;;24.92;10.00;;;;;;;3.90;52.71;99838.38;5109778;28;20073;-57
2022/03/25 03:03:12;;;;;;;26.73;11.77;;;;;;;3.98;52.32;99852.09;5111651;28;20301;-57
2022/03/25 03:05:38;;;;;;;25.17;10.10;;;;;;;4.05;52.67;99854.75;5123428;28;20094;-58
2022/03/25 03:08:04;;;;;;;25.17;11.70;;;;;;;4.14;52.13;99853.06;5122432;28;20259;-57
2022/03/25 03:10:30;;;;;;;25.95;10.52;;;;;;;4.19;52.97;99849.69;5103351;28;20024;-56
2022/03/25 03:12:56;;;;;;;26.00;11.15;;;;;;;4.18;52.47;99843.72;5103448;28;20059;-58
2022/03/25 03:15:22;;;;;;;24.45;12.75;;;;;;;4.31;52.42;99855.75;5103067;28;20055;-57
2022/03/25 03:17:49;;;;;;;34.53;12.25;;;;;;;4.34;50.95;99851.53;5101962;28;20040;-58
2022/03/25 03:20:16;;;;;;;31.90;12.25;;;;;;;4.35;52.22;99855.78;5103538;28;20096;-56
2022/03/25 03:22:42;;;;;;;28.73;10.77;;;;;;;4.44;51.66;99861.81;5123317;28;20024;-58
2022/03/25 03:25:10;;;;;;;30.02;12.07;;;;;;;4.54;51.12;99855.06;5095813;28;20054;-57
2022/03/25 03:27:40;;;;;;;26.35;12.00;;;;;;;4.59;51.28;99866.22;5101799;28;20020;-57
2022/03/25 03:30:08;;;;;;;28.77;12.02;;;;;;;4.58;50.73;99861.06;5102553;28;20024;-58
2022/03/25 03:32:34;;;;;;;35.40;12.80;;;;;;;4.62;49.85;99867.94;5103308;28;20034;-58
2022/03/25 03:35:01;;;;;;;24.65;11.45;;;;;;;4.68;48.61;99864.56;5086599;28;20078;-58
2022/03/25 03:37:26;;;;;;;26.20;11.77;;;;;;;4.75;48.66;99866.28;5101371;28;20024;-57
2022/03/25 03:39:52;;;;;;;24.33;11.57;;;;;;;4.75;50.45;99859.44;5102440;28;20028;-57
2022/03/25 03:42:18;;;;;;;32.25;12.43;;;;;;;4.72;48.54;99841.47;5102314;28;20031;-58
2022/03/25 03:44:44;;;;;;;33.35;12.60;;;;;;;4.91;49.49;99868.06;5102701;28;20040;-58
2022/03/25 03:47:10;;;;;;;28.20;13.38;;;;;;;4.95;48.58;99863.81;5102810;28;20028;-58
2022/03/25 03:49:37;;;;;;;31.67;13.18;;;;;;;4.90;48.22;99861.22;5102325;28;20083;-58
2022/03/25 03:52:04;;;;;;;26.77;11.93;;;;;;;4.97;47.95;99862.97;5102577;28;20201;-59
2022/03/25 03:54:31;;;;;;;29.58;12.65;;;;;;;4.96;48.81;99863.81;5101314;28;20093;-58
2022/03/25 03:56:57;;;;;;;24.13;12.90;;;;;;;5.03;48.63;99856.13;5102694;28;20074;-57
2022/03/25 03:59:22;;;;;;;27.17;13.60;;;;;;;5.08;47.86;99864.72;5103526;28;20015;-57
2022/03/25 04:01:48;;;;;;;30.23;14.82;;;;;;;5.05;48.68;99854.47;5123134;28;20031;-59
2022/03/25 04:04:13;;;;;;;27.98;13.52;;;;;;;5.09;48.94;99854.47;5105892;28;20091;-58
2022/03/25 04:06:39;;;;;;;32.42;14.13;;;;;;;5.10;49.10;99857.88;5102307;28;20020;-58
2022/03/25 04:09:05;;;;;;;28.25;13.45;;;;;;;5.12;48.86;99853.63;5101116;28;20062;-57
2022/03/25 04:11:30;;;;;;;31.00;13.98;;;;;;;5.17;51.26;99854.47;5101986;28;20127;-59
2022/03/25 04:13:56;;;;;;;30.38;13.50;;;;;;;5.14;50.08;99855.31;5102365;28;20031;-59
2022/03/25 04:16:22;;;;;;;40.22;13.95;;;;;;;5.18;51.34;99854.47;5120180;28;20320;-60
2022/03/25 04:18:48;;;;;;;36.55;14.57;;;;;;;5.18;50.98;99853.63;5109490;28;20343;-58
2022/03/25 04:21:14;;;;;;;29.73;12.23;;;;;;;5.18;49.60;99854.47;5110243;28;20082;-59
2022/03/25 04:23:39;;;;;;;29.08;13.55;;;;;;;5.22;51.01;99855.38;5122576;28;20026;-60
2022/03/25 04:26:05;;;;;;;31.27;12.68;;;;;;;5.26;50.41;99851.97;5110397;28;20051;-59
2022/03/25 04:28:31;;;;;;;34.60;13.40;;;;;;;5.33;50.73;99853.69;5115017;28;20028;-59
2022/03/25 04:30:57;;;;;;;27.90;11.75;;;;;;;5.31;50.03;99850.25;5095664;28;20309;-59
2022/03/25 04:33:22;;;;;;;33.58;13.57;;;;;;;5.34;48.76;99849.41;5101741;28;20039;-59
2022/03/25 04:35:48;;;;;;;33.53;12.82;;;;;;;5.39;48.62;99855.41;5106392;28;20181;-59
2022/03/25 04:38:15;;;;;;;31.50;12.52;;;;;;;5.39;49.51;99855.41;5081803;28;20036;-60
2022/03/25 04:40:41;;;;;;;32.17;12.52;;;;;;;5.44;49.73;99858.81;5101839;28;20062;-59
2022/03/25 04:43:07;;;;;;;28.40;13.90;;;;;;;5.48;49.53;99867.41;5101278;28;20206;-59
2022/03/25 04:45:33;;;;;;;40.10;14.40;;;;;;;5.47;49.30;99863.13;5112678;28;20054;-60
2022/03/25 04:47:59;;;;;;;32.47;13.07;;;;;;;5.52;48.16;99857.13;5116117;28;20294;-59
2022/03/25 04:50:25;;;;;;;28.45;13.95;;;;;;;5.60;49.55;99866.56;5095349;28;20025;-59
2022/03/25 04:52:51;;;;;;;27.90;12.32;;;;;;;5.62;47.59;99867.44;5101832;28;20087;-59
2022/03/25 04:55:17;;;;;;;25.92;12.80;;;;;;;5.65;48.65;99858.00;5101559;28;20024;-59
2022/03/25 04:57:43;;;;;;;30.58;13.55;;;;;;;5.72;48.56;99858.03;5113206;28;20020;-58
2022/03/25 05:00:10;;;;;;;29.00;13.10;;;;;;;5.80;47.75;99856.31;5118637;28;20020;-58
2022/03/25 05:02:36;;;;;;;29.92;13.23;;;;;;;5.83;47.56;99862.31;5105970;28;20020;-59
2022/03/25 05:05:02;;;;;;;34.28;13.80;;;;;;;5.89;47.57;99869.19;5124566;28;20028;-59
2022/03/25 05:07:29;;;;;;;28.48;13.52;;;;;;;5.97;47.06;99854.66;5105392;28;20050;-58
2022/03/25 05:09:59;;;;;;;32.65;14.57;;;;;;;6.05;47.54;99870.91;5118510;28;20020;-58
2022/03/25 05:12:25;;;;;;;31.55;15.38;;;;;;;6.08;47.37;99869.22;5115650;28;20119;-58
2022/03/25 05:14:51;;;;;;;28.17;14.20;;;;;;;6.10;47.06;99860.66;5104978;28;20220;-59
2022/03/25 05:17:18;;;;;;;30.02;14.80;;;;;;;6.12;47.33;99861.50;5091949;28;20313;-58
2022/03/25 05:19:44;;;;;;;22.55;14.25;;;;;;;6.18;47.04;99865.78;5105133;28;20028;-58
2022/03/25 05:22:09;;;;;;;28.27;14.40;;;;;;;6.26;46.72;99871.78;5104958;28;20305;-58
2022/03/25 05:24:35;;;;;;;31.20;15.50;;;;;;;6.26;46.15;99870.94;5104845;28;20270;-58
2022/03/25 05:27:01;;;;;;;24.58;13.68;;;;;;;6.36;45.92;99876.06;5104834;28;20062;-59
2022/03/25 05:29:28;;;;;;;28.75;14.88;;;;;;;6.45;46.56;99869.19;5104666;28;20028;-59
2022/03/25 05:31:53;;;;;;;31.15;14.13;;;;;;;6.44;46.49;99878.63;5104575;28;20095;-58
2022/03/25 05:34:19;;;;;;;33.72;15.15;;;;;;;6.41;45.93;99877.75;5104533;28;20087;-58
2022/03/25 05:36:44;;;;;;;21.98;13.70;;;;;;;6.45;46.72;99884.63;5104605;28;20039;-58
2022/03/25 05:39:10;;;;;;;29.65;13.98;;;;;;;6.42;45.93;99888.06;5105010;28;20055;-58
2022/03/25 05:41:36;;;;;;;28.02;14.00;;;;;;;6.50;45.95;99882.88;5104655;28;20028;-59
2022/03/25 05:44:01;;;;;;;26.33;14.02;;;;;;;6.40;45.46;99861.50;5104462;28;20094;-58
2022/03/25 05:46:27;;;;;;;27.55;14.88;;;;;;;6.44;45.08;99886.34;5122621;28;20050;-59
2022/03/25 05:48:53;;;;;;;30.55;13.32;;;;;;;6.34;46.04;99874.34;5111984;27;20031;-57
2022/03/25 05:51:19;;;;;;;23.23;13.40;;;;;;;6.53;45.12;99891.47;5097542;28;20039;-58
2022/03/25 05:53:45;;;;;;;24.58;13.32;;;;;;;6.51;45.63;99885.47;5104473;28;20035;-58
2022/03/25 05:56:11;;;;;;;28.35;13.60;;;;;;;6.61;45.92;99888.88;5104021;28;20053;-58
2022/03/25 05:58:38;;;;;;;28.42;12.77;;;;;;;6.65;45.24;99890.56;5104430;28;20027;-57
2022/03/25 06:01:06;;;;;;;30.65;12.63;;;;;;;6.46;45.22;99855.47;5104264;28;20270;-58
2022/03/25 06:03:32;;;;;;;28.75;12.93;;;;;;;6.78;45.44;99890.56;5104118;28;20052;-60
2022/03/25 06:06:03;;;;;;;24.67;12.82;;;;;;;6.82;45.61;99892.28;5103870;28;20038;-58
2022/03/25 06:08:30;;;;;;;25.50;13.35;;;;;;;6.89;44.61;99893.97;5104161;28;20028;-58
2022/03/25 06:11:11;;;;;;;26.52;13.85;;;;;;;6.85;45.01;99887.09;5103078;28;20047;-59
2022/03/25 06:13:36;;;;;;;34.78;14.38;;;;;;;6.93;45.30;99897.38;5104046;28;20032;-58
2022/03/25 06:16:02;;;;;;;28.17;12.38;;;;;;;6.84;44.66;99901.72;5103928;28;20073;-58
2022/03/25 06:18:27;;;;;;;24.05;12.13;;;;;;;6.86;45.44;99899.97;5104255;28;20031;-58
2022/03/25 06:20:53;;;;;;;27.45;12.98;;;;;;;6.98;44.97;99898.22;5103853;28;20032;-58
2022/03/25 06:23:18;;;;;;;24.10;13.30;;;;;;;7.03;45.24;99894.78;5102918;28;20309;-59
2022/03/25 06:25:44;;;;;;;21.52;12.48;;;;;;;7.06;44.88;99906.78;5103531;28;20368;-58
2022/03/25 06:28:09;;;;;;;25.38;13.20;;;;;;;7.15;45.23;99908.47;5103873;28;20191;-59
2022/03/25 06:30:37;;;;;;;22.90;13.60;;;;;;;7.15;44.27;99911.03;5094748;28;20331;-57
2022/03/25 06:33:09;;;;;;;22.13;14.05;;;;;;;7.17;43.59;99906.72;5076470;28;20225;-59
2022/03/25 06:35:36;;;;;;;26.80;13.98;;;;;;;7.21;43.74;99903.28;5103974;28;20376;-58
2022/03/25 06:38:04;;;;;;;34.72;16.83;;;;;;;7.21;44.25;99903.28;5103115;28;20020;-58
2022/03/25 06:40:30;;;;;;;27.65;15.25;;;;;;;7.25;44.59;99899.81;5101726;28;20038;-57
2022/03/25 06:42:57;;;;;;;34.55;17.08;;;;;;;7.28;44.38;99899.81;5102872;28;20016;-57
2022/03/25 06:45:25;;;;;;;33.58;17.15;;;;;;;7.34;44.00;99922.13;5111138;28;20080;-57
2022/03/25 06:47:51;;;;;;;32.72;17.25;;;;;;;7.08;43.69;99911.06;5119526;28;20020;-58
2022/03/25 06:50:18;;;;;;;29.50;16.42;;;;;;;6.93;43.80;99907.66;5096315;28;20079;-58
2022/03/25 06:52:45;;;;;;;37.92;16.70;;;;;;;6.65;43.98;99857.13;5102560;28;20020;-60
2022/03/25 06:55:12;;;;;;;31.50;16.13;;;;;;;7.00;43.71;99905.09;5103162;28;20065;-59
2022/03/25 06:57:38;;;;;;;34.72;17.00;;;;;;;7.05;43.62;99898.22;5102295;28;20288;-58
2022/03/25 07:00:05;;;;;;;30.15;16.67;;;;;;;7.08;43.28;99903.34;5102945;28;20031;-58
2022/03/25 07:02:31;;;;;;;24.02;15.80;;;;;;;7.17;43.69;99906.72;5102914;28;20047;-57
2022/03/25 07:04:57;;;;;;;31.85;16.38;;;;;;;7.20;43.57;99905.00;5102601;28;20048;-57
2022/03/25 07:07:26;;;;;;;31.33;15.75;;;;;;;7.23;44.01;99907.56;5102930;28;20020;-57
2022/03/25 07:09:53;;;;;;;27.30;15.75;;;;;;;7.15;44.12;99909.31;5102511;28;20438;-58
2022/03/25 07:12:19;;;;;;;30.15;15.00;;;;;;;7.28;43.85;99909.28;5103215;28;20031;-58
2022/03/25 07:14:44;;;;;;;35.85;15.35;;;;;;;7.40;43.76;99914.38;5102995;28;20042;-58
2022/03/25 07:17:10;;;;;;;30.30;15.90;;;;;;;7.46;44.47;99905.75;5102886;28;20016;-58
2022/03/25 07:19:36;;;;;;;26.08;14.98;;;;;;;7.54;43.83;99911.69;5102683;28;20309;-57
2022/03/25 07:22:01;;;;;;;28.73;14.88;;;;;;;7.60;43.14;99916.84;5102535;28;20213;-59
2022/03/25 07:24:27;;;;;;;28.13;14.43;;;;;;;7.70;43.43;99905.63;5103020;28;20024;-59
2022/03/25 07:26:52;;;;;;;29.23;15.27;;;;;;;7.68;44.30;99909.06;5102527;28;20309;-58
2022/03/25 07:29:18;;;;;;;20.45;15.15;;;;;;;7.73;44.86;99904.75;5102931;28;20339;-58
2022/03/25 07:31:44;;;;;;;25.73;15.35;;;;;;;7.76;43.33;99913.28;5102454;28;20027;-57
2022/03/25 07:34:09;;;;;;;32.45;15.65;;;;;;;7.81;43.07;99910.72;5102455;28;20039;-58
2022/03/25 07:36:35;;;;;;;28.48;15.48;;;;;;;7.95;43.61;99911.47;5112596;28;20039;-57
2022/03/25 07:39:02;;;;;;;26.02;14.95;;;;;;;8.01;43.79;99907.13;5115757;28;20313;-59
2022/03/25 07:41:31;;;;;;;28.00;14.70;;;;;;;7.94;43.20;99911.50;5102482;28;20035;-58
2022/03/25 07:43:57;;;;;;;26.45;15.48;;;;;;;7.84;42.37;99896.91;5102503;28;20121;-58
2022/03/25 07:46:23;;;;;;;25.92;13.57;;;;;;;7.92;43.66;99905.47;5102322;28;20060;-58
2022/03/25 07:48:50;;;;;;;22.75;14.98;;;;;;;7.84;42.37;99904.66;5114376;28;20046;-58
2022/03/25 07:51:15;;;;;;;28.13;15.05;;;;;;;7.93;43.33;99889.13;5114528;28;20114;-59
2022/03/25 07:53:41;;;;;;;24.88;14.68;;;;;;;8.10;42.63;99900.16;5112598;28;20317;-59
2022/03/25 07:56:07;;;;;;;31.13;15.30;;;;;;;8.12;43.13;99901.03;5122770;28;20177;-58
2022/03/25 07:58:32;;;;;;;38.22;17.48;;;;;;;8.26;42.21;99902.63;5103942;28;20038;-59
2022/03/25 08:00:58;;;;;;;28.02;16.73;;;;;;;8.30;42.48;99900.00;5102539;28;20043;-57
2022/03/25 08:03:24;;;;;;;29.92;17.90;;;;;;;8.45;42.54;99896.47;5102232;28;20332;-58
2022/03/25 08:05:50;;;;;;;33.13;16.92;;;;;;;8.42;43.11;99899.06;5100815;28;20085;-59
2022/03/25 08:08:19;;;;;;;32.63;18.25;;;;;;;8.39;42.39;99881.00;5102721;28;20036;-58
2022/03/25 08:10:47;;;;;;;36.58;18.08;;;;;;;8.53;42.94;99891.22;5102379;28;20028;-58
2022/03/25 08:13:15;;;;;;;31.20;17.48;;;;;;;8.71;42.88;99890.19;5116944;28;20039;-59
2022/03/25 08:15:41;;;;;;;29.55;17.13;;;;;;;8.91;41.46;99895.16;5112702;28;20167;-59
2022/03/25 08:18:10;;;;;;;34.90;17.70;;;;;;;8.75;41.24;99837.66;5096900;28;20028;-58
2022/03/25 08:20:41;;;;;;;37.80;17.40;;;;;;;9.33;40.47;99897.22;5083087;28;20332;-59
2022/03/25 08:27:48;;;;;;;29.92;18.63;;;;;;;9.49;41.22;99908.19;5102147;28;20031;-59
2022/03/25 08:28:54;;;;;;;34.40;17.90;;;;;;;9.96;39.89;99874.78;5086762;28;20024;-58
2022/03/25 08:31:19;;;;;;;31.13;17.23;;;;;;;10.18;38.93;99883.91;5101898;28;20032;-58
2022/03/25 08:33:46;;;;;;;30.83;13.80;;;;;;;10.18;38.29;99886.47;5106723;28;20031;-59
2022/03/25 08:36:12;;;;;;;31.00;15.95;;;;;;;10.44;38.03;99877.44;5091831;28;20020;-58
2022/03/25 08:38:37;;;;;;;36.47;17.25;;;;;;;10.51;38.87;99883.38;5106042;28;20047;-59
2022/03/25 08:41:04;;;;;;;29.67;17.67;;;;;;;10.60;39.11;99883.19;5105986;28;20038;-58
2022/03/25 08:43:31;;;;;;;25.88;18.02;;;;;;;10.40;37.22;99870.59;5106012;28;20028;-59
2022/03/25 08:45:57;;;;;;;30.15;17.00;;;;;;;10.19;38.67;99877.00;5117761;28;20216;-58
2022/03/25 08:48:23;;;;;;;34.03;18.92;;;;;;;10.22;38.29;99878.66;5117058;28;20081;-58
2022/03/25 08:50:49;;;;;;;29.52;17.05;;;;;;;10.33;38.27;99875.03;5098621;28;20050;-58
2022/03/25 08:53:16;;;;;;;36.88;18.63;;;;;;;10.14;38.03;99879.66;5105217;28;20035;-58
2022/03/25 08:55:41;;;;;;;33.35;18.15;;;;;;;10.18;38.45;99877.88;5105329;28;20055;-58
2022/03/25 08:58:07;;;;;;;35.35;19.42;;;;;;;10.15;39.07;99875.34;5105637;28;20031;-59
2022/03/25 09:00:33;;;;;;;41.88;18.83;;;;;;;10.27;38.52;99867.34;5114693;28;20031;-58
2022/03/25 09:02:58;;;;;;;43.17;23.70;;;;;;;10.46;38.55;99869.66;5092458;28;20054;-59
2022/03/25 09:05:24;;;;;;;36.65;20.02;;;;;;;10.49;38.66;99864.44;5105498;28;20035;-59
2022/03/25 09:07:50;;;;;;;38.00;19.08;;;;;;;10.47;38.42;99867.03;5104597;28;20313;-59
2022/03/25 09:10:16;;;;;;;32.80;19.77;;;;;;;10.38;37.68;99876.72;5105620;28;20032;-59
2022/03/25 09:12:43;;;;;;;39.80;19.73;;;;;;;10.40;38.50;99867.19;5105558;28;20107;-59
2022/03/25 09:15:12;;;;;;;41.10;20.30;;;;;;;10.17;38.11;99827.00;5104013;28;20194;-58
2022/03/25 09:17:44;;;;;;;35.10;19.00;;;;;;;10.66;38.59;99867.56;5104167;28;20020;-58
2022/03/25 09:20:10;;;;;;;41.47;19.47;;;;;;;10.91;38.25;99861.91;5089916;28;20044;-59
2022/03/25 09:22:36;;;;;;;43.00;21.73;;;;;;;11.04;38.58;99862.50;5104888;28;20698;-59
2022/03/25 09:25:03;;;;;;;37.92;20.02;;;;;;;11.05;38.12;99838.28;5103377;28;20035;-57
2022/03/25 09:27:29;;;;;;;38.53;19.75;;;;;;;10.98;37.75;99826.34;5113004;28;20023;-59
2022/03/25 09:29:54;;;;;;;41.33;21.58;;;;;;;11.00;39.20;99850.47;5107592;28;20063;-58
2022/03/25 09:32:20;;;;;;;37.10;20.23;;;;;;;11.11;37.80;99864.06;5105010;28;20043;-59
2022/03/25 09:37:30;;;;;;;36.30;20.60;;;;;;;11.01;37.73;99857.38;5100647;28;20313;-58
2022/03/25 09:39:55;;;;;;;33.45;20.58;;;;;;;10.97;37.88;99860.91;5089600;28;20044;-58
2022/03/25 09:42:22;;;;;;;34.22;18.40;;;;;;;10.94;37.20;99853.22;5095395;28;20028;-58
2022/03/25 09:44:49;;;;;;;33.92;19.23;;;;;;;10.77;38.03;99856.97;5104384;28;20070;-57
2022/03/25 09:47:16;;;;;;;38.85;18.88;;;;;;;10.83;38.27;99861.19;5104831;28;20228;-58
2022/03/25 09:49:43;;;;;;;28.05;17.80;;;;;;;11.01;38.36;99857.38;5104462;28;20015;-59
2022/03/25 09:52:09;;;;;;;36.83;18.25;;;;;;;10.68;38.04;99857.16;5104695;28;20038;-58
2022/03/25 09:54:35;;;;;;;30.02;17.50;;;;;;;10.92;37.54;99862.78;5104494;28;20054;-57
2022/03/25 09:57:02;;;;;;;30.48;17.55;;;;;;;10.91;38.33;99853.28;5104325;28;20056;-59
2022/03/25 09:59:27;;;;;;;39.55;18.67;;;;;;;10.63;38.53;99854.69;5084147;28;20059;-58
2022/03/25 10:01:53;;;;;;;35.10;18.60;;;;;;;10.73;39.62;99850.19;5103239;28;20020;-58
2022/03/25 10:04:37;;;;;;;29.25;17.73;;;;;;;10.77;38.91;99853.53;5104174;28;20083;-59
2022/03/25 10:07:18;;;;;;;46.28;22.77;;;;;;;10.87;38.10;99861.13;5103662;28;20217;-58
2022/03/25 10:09:45;;;;;;;34.57;17.60;;;;;;;10.88;38.79;99849.00;5103885;28;20055;-59
2022/03/25 10:12:24;;;;;;;32.40;18.23;;;;;;;10.93;38.45;99848.91;5109567;28;20047;-60
2022/03/25 10:14:52;;;;;;;32.28;17.10;;;;;;;10.77;39.57;99823.31;5106085;28;20058;-59
2022/03/25 10:17:19;;;;;;;28.80;16.77;;;;;;;10.92;39.24;99839.44;5124713;28;20065;-59
2022/03/25 10:22:34;;;;;;;33.15;18.13;;;;;;;10.99;38.80;99843.63;5102429;28;20321;-59
2022/03/25 10:25:00;;;;;;;34.88;18.23;;;;;;;11.07;38.56;99840.84;5103876;28;20020;-59
2022/03/25 10:27:29;;;;;;;29.50;17.48;;;;;;;10.90;39.66;99843.78;5104019;28;20193;-57
2022/03/25 10:29:55;;;;;;;34.55;17.85;;;;;;;10.96;40.06;99841.06;5103693;28;20051;-59
2022/03/25 10:32:25;;;;;;;38.10;19.45;;;;;;;10.88;38.86;99836.91;5104109;28;20178;-59
2022/03/25 10:35:07;;;;;;;34.20;19.20;;;;;;;10.59;39.67;99784.81;5097661;28;20062;-60
2022/03/25 10:37:33;;;;;;;40.42;19.65;;;;;;;10.94;39.65;99825.56;5116343;28;20025;-58
2022/03/25 10:39:58;;;;;;;45.35;19.95;;;;;;;10.94;40.29;99824.72;5095883;28;20031;-58
2022/03/25 10:42:24;;;;;;;54.58;32.10;;;;;;;11.04;40.53;99836.59;5094067;28;20043;-59
2022/03/25 10:44:50;;;;;;;40.10;20.20;;;;;;;10.86;39.31;99823.13;5103703;28;20024;-59
2022/03/25 10:47:15;;;;;;;36.20;19.02;;;;;;;11.05;40.21;99820.16;5103575;28;20031;-59
2022/03/25 10:49:46;;;;;;;31.25;19.33;;;;;;;11.21;38.96;99824.09;5118010;28;20046;-58
2022/03/25 10:52:34;;;;;;;38.53;20.17;;;;;;;11.11;38.77;99781.13;5103496;28;20031;-59
2022/03/25 10:55:20;;;;;;;35.13;19.50;;;;;;;11.28;40.14;99813.63;5094680;28;20221;-58
2022/03/25 10:58:01;;;;;;;36.15;19.80;;;;;;;11.28;38.26;99811.88;5081680;28;20317;-58
2022/03/25 11:00:27;;;;;;;34.33;19.23;;;;;;;11.30;38.64;99817.91;5090071;28;20337;-58
2022/03/25 11:02:54;;;;;;;35.83;17.90;;;;;;;11.35;38.60;99821.22;5103210;28;20056;-58
2022/03/25 11:05:20;;;;;;;41.97;19.80;;;;;;;11.17;38.65;99806.94;5098069;28;20396;-59
2022/03/25 11:07:47;;;;;;;35.88;19.85;;;;;;;11.27;40.08;99827.47;5103081;28;20555;-59
2022/03/25 11:10:15;;;;;;;35.70;21.15;;;;;;;10.96;39.64;99808.25;5104696;28;20048;-59
2022/03/25 11:12:42;;;;;;;39.17;20.30;;;;;;;11.04;40.16;99810.66;5102206;28;20047;-59
2022/03/25 11:15:10;;;;;;;36.13;20.35;;;;;;;10.92;40.05;99753.94;5102664;28;20382;-58
2022/03/25 11:17:38;;;;;;;34.30;20.95;;;;;;;10.83;40.51;99762.75;5102725;28;20363;-58
2022/03/25 11:20:05;;;;;;;33.65;18.30;;;;;;;10.84;40.52;99811.94;5100804;28;20213;-60
2022/03/25 11:22:34;;;;;;;38.78;19.80;;;;;;;11.01;41.04;99809.00;5102705;28;20031;-59
2022/03/25 11:25:03;;;;;;;30.15;19.65;;;;;;;11.10;40.52;99805.38;5103015;28;20028;-59
2022/03/25 11:27:33;;;;;;;34.63;19.77;;;;;;;10.76;39.94;99750.81;5102722;28;20047;-59
2022/03/25 11:30:09;;;;;;;27.92;19.83;;;;;;;10.94;40.59;99793.63;5102570;28;20036;-60
2022/03/25 11:32:47;;;;;;;30.98;18.45;;;;;;;10.53;41.15;99753.00;5103031;28;20061;-59